Orrville, Canada
Current Conditions -  °F | °C
As of 10:49 AM on Saturday 22 Nov 2014 (Local Time) from CYQA Reporting Station
Light Snow Light Snow  
Wind Chill: 23°   Ceiling: 2200
Heat Index: 30°   Visibility: 9mi
Dew Point: 25°   Wind: 7mph
Humidity: 80%   Direction: 150°SSE
Pressure: 29.94"   Gusts: NA
Location:  45.38°N, 79.78°W
Report Text: CYQA 221549Z AUTO 15006KT 9SM -SN OVC022 M01/M04 A2994 RMK PRESFR SLP153
Loading
Personal Weather Stations






























Interactive Weather Map New forecast layout! Learn more

10-Day Weather Forecast

Advertisements
Track Severe Weather on mobile